createdAt,value
2023-03-01T00:01:22.220Z,9.57
2023-03-01T00:03:50.585Z,8.95
2023-03-01T00:06:19.197Z,8.63
2023-03-01T00:08:48.912Z,8.55
2023-03-01T00:11:18.919Z,7.88
2023-03-01T00:13:48.141Z,7.47
2023-03-01T00:16:19.178Z,7.43
2023-03-01T00:18:47.269Z,7.40
2023-03-01T00:21:15.811Z,7.75
2023-03-01T00:23:43.750Z,6.57
2023-03-01T00:26:15.628Z,7.20
2023-03-01T00:28:44.399Z,7.22
2023-03-01T00:31:15.139Z,6.93
2023-03-01T00:33:43.485Z,6.82
2023-03-01T00:36:13.190Z,7.18
2023-03-01T00:38:42.931Z,7.15
2023-03-01T00:41:13.816Z,7.20
2023-03-01T00:43:42.403Z,6.55
2023-03-01T00:46:12.930Z,7.80
2023-03-01T00:48:40.906Z,6.72
2023-03-01T00:51:10.732Z,7.45
2023-03-01T00:53:39.353Z,7.20
2023-03-01T00:56:09.225Z,7.18
2023-03-01T00:58:38.642Z,7.38
2023-03-01T01:01:18.032Z,7.90
2023-03-01T01:03:50.826Z,7.75
2023-03-01T01:06:20.223Z,8.02
2023-03-01T01:08:50.238Z,7.82
2023-03-01T01:11:18.722Z,7.65
2023-03-01T01:13:49.538Z,7.82
2023-03-01T01:16:18.843Z,7.45
2023-03-01T01:18:47.759Z,8.40
2023-03-01T01:21:18.516Z,8.13
2023-03-01T01:23:48.201Z,7.93
2023-03-01T01:26:18.749Z,8.05
2023-03-01T01:28:48.840Z,8.93
2023-03-01T01:31:17.115Z,9.57
2023-03-01T01:33:45.273Z,8.75
2023-03-01T01:36:13.726Z,8.85
2023-03-01T01:38:43.320Z,9.10
2023-03-01T01:41:13.457Z,8.90
2023-03-01T01:43:43.748Z,9.18
2023-03-01T01:46:21.907Z,9.25
2023-03-01T01:48:55.026Z,9.05
2023-03-01T01:51:30.008Z,9.15
2023-03-01T01:54:02.554Z,9.05
2023-03-01T01:56:32.081Z,9.00
2023-03-01T01:59:00.830Z,8.88
2023-03-01T02:01:30.505Z,9.18
2023-03-01T02:03:59.112Z,8.75
2023-03-01T02:06:31.522Z,8.95
2023-03-01T02:09:02.310Z,8.68
2023-03-01T02:11:32.114Z,9.93
2023-03-01T02:14:00.136Z,8.48
2023-03-01T02:16:30.365Z,8.73
2023-03-01T02:19:00.618Z,9.50
2023-03-01T02:21:41.544Z,8.85
2023-03-01T02:24:20.410Z,8.27
2023-03-01T02:26:54.315Z,9.32
2023-03-01T02:29:24.393Z,9.38
2023-03-01T02:31:54.548Z,9.52
2023-03-01T02:34:26.199Z,8.73
2023-03-01T02:36:58.886Z,8.23
2023-03-01T02:39:30.961Z,9.05
2023-03-01T02:42:01.240Z,8.75
2023-03-01T02:44:31.096Z,8.73
2023-03-01T02:47:03.112Z,8.55
2023-03-01T02:49:32.804Z,8.02
2023-03-01T02:52:18.586Z,8.52
2023-03-01T02:54:50.722Z,8.65
2023-03-01T02:57:19.684Z,7.75
2023-03-01T02:59:51.827Z,8.20
2023-03-01T03:02:36.757Z,8.63
2023-03-01T03:05:11.939Z,8.40
2023-03-01T03:07:41.969Z,8.40
2023-03-01T03:10:13.130Z,8.90
2023-03-01T03:12:41.635Z,8.65
2023-03-01T03:15:13.582Z,8.55
2023-03-01T03:17:45.174Z,9.02
2023-03-01T03:20:20.058Z,8.88
2023-03-01T03:22:48.844Z,8.50
2023-03-01T03:25:17.773Z,8.77
2023-03-01T03:27:48.351Z,8.48
2023-03-01T03:30:20.602Z,8.35
2023-03-01T03:32:53.550Z,8.38
2023-03-01T03:35:22.833Z,8.75
2023-03-01T03:38:07.301Z,8.10
2023-03-01T03:40:37.824Z,8.68
2023-03-01T03:43:07.724Z,8.70
2023-03-01T03:45:37.445Z,8.57
2023-03-01T03:48:07.297Z,8.27
2023-03-01T03:50:35.566Z,8.77
2023-03-01T03:53:05.302Z,8.80
2023-03-01T03:55:34.877Z,8.73
2023-03-01T03:58:07.829Z,9.18
2023-03-01T04:00:38.562Z,10.77
2023-03-01T04:03:06.947Z,9.43
2023-03-01T04:05:35.272Z,8.88
2023-03-01T04:08:03.264Z,8.77
2023-03-01T04:10:32.691Z,8.40
2023-03-01T04:13:00.809Z,8.48
2023-03-01T04:15:29.696Z,8.57
2023-03-01T04:18:00.029Z,10.35
2023-03-01T04:20:30.632Z,8.75
2023-03-01T04:23:09.524Z,8.80
2023-03-01T04:25:37.516Z,8.88
2023-03-01T04:28:05.714Z,9.38
2023-03-01T04:30:36.661Z,8.73
2023-03-01T04:33:07.455Z,8.57
2023-03-01T04:35:37.236Z,8.93
2023-03-01T04:38:06.089Z,7.97
2023-03-01T04:40:34.460Z,8.38
2023-03-01T04:43:03.108Z,8.60
2023-03-01T04:45:31.113Z,11.45
2023-03-01T04:47:59.604Z,10.18
2023-03-01T04:50:29.029Z,9.60
2023-03-01T04:52:59.440Z,8.35
2023-03-01T04:55:28.443Z,9.50
2023-03-01T04:57:57.437Z,10.05
2023-03-01T05:00:25.625Z,12.23
2023-03-01T05:02:56.210Z,12.65
2023-03-01T05:05:27.075Z,12.73
2023-03-01T05:07:58.392Z,12.55
2023-03-01T05:10:27.466Z,12.73
2023-03-01T05:12:55.422Z,12.10
2023-03-01T05:15:26.512Z,11.18
2023-03-01T05:17:55.345Z,12.10
2023-03-01T05:20:24.925Z,11.80
2023-03-01T05:22:53.663Z,11.85
2023-03-01T05:25:23.385Z,11.25
2023-03-01T05:27:51.327Z,12.00
2023-03-01T05:30:20.050Z,10.60
2023-03-01T05:32:50.818Z,9.38
2023-03-01T05:35:20.123Z,10.57
2023-03-01T05:37:49.907Z,9.80
2023-03-01T05:40:19.980Z,9.13
2023-03-01T05:42:50.989Z,9.82
2023-03-01T05:45:19.686Z,9.75
2023-03-01T05:47:49.530Z,9.95
2023-03-01T05:50:20.637Z,9.13
2023-03-01T05:52:49.795Z,9.35
2023-03-01T05:55:18.833Z,8.65
2023-03-01T05:57:46.716Z,9.52
2023-03-01T06:00:19.828Z,9.07
2023-03-01T06:02:47.963Z,9.13
2023-03-01T06:05:17.038Z,9.40
2023-03-01T06:07:45.409Z,9.43
2023-03-01T06:10:15.025Z,9.27
2023-03-01T06:12:44.605Z,9.15
2023-03-01T06:15:13.912Z,10.63
2023-03-01T06:17:44.690Z,14.68
2023-03-01T06:20:16.438Z,10.25
2023-03-01T06:22:44.792Z,9.63
2023-03-01T06:25:14.399Z,9.43
2023-03-01T06:27:42.917Z,9.77
2023-03-01T06:30:13.146Z,9.05
2023-03-01T06:32:42.848Z,9.32
2023-03-01T06:35:13.378Z,9.23
2023-03-01T06:37:42.463Z,9.65
2023-03-01T06:40:12.663Z,9.35
2023-03-01T06:42:42.652Z,9.70
2023-03-01T06:45:12.267Z,9.10
2023-03-01T06:47:40.267Z,10.02
2023-03-01T06:50:09.061Z,10.02
2023-03-01T06:52:38.344Z,9.63
2023-03-01T06:55:07.644Z,9.80
2023-03-01T06:57:35.626Z,10.20
2023-03-01T07:00:03.607Z,11.27
2023-03-01T07:02:31.422Z,10.55
2023-03-01T07:04:59.256Z,11.40
2023-03-01T07:07:27.211Z,9.70
2023-03-01T07:09:56.398Z,10.57
2023-03-01T07:12:24.188Z,11.57
2023-03-01T07:14:52.101Z,11.82
2023-03-01T07:17:20.475Z,11.55
2023-03-01T07:19:48.321Z,12.77
2023-03-01T07:22:16.215Z,13.65
2023-03-01T07:24:44.063Z,14.32
2023-03-01T07:27:13.644Z,14.38
2023-03-01T07:29:41.613Z,14.35
2023-03-01T07:32:09.889Z,14.45
2023-03-01T07:34:37.866Z,14.20
2023-03-01T07:37:05.772Z,12.95
2023-03-01T07:39:33.565Z,13.40
2023-03-01T07:42:01.434Z,12.50
2023-03-01T07:44:30.537Z,10.98
2023-03-01T07:46:59.102Z,10.50
2023-03-01T07:49:28.479Z,10.10
2023-03-01T07:51:56.995Z,10.98
2023-03-01T07:54:24.837Z,10.82
2023-03-01T07:56:52.815Z,9.82
2023-03-01T07:59:20.881Z,9.85
2023-03-01T08:01:50.581Z,10.40
2023-03-01T08:04:18.480Z,10.13
2023-03-01T08:06:46.310Z,10.77
2023-03-01T08:09:14.104Z,10.88
2023-03-01T08:11:41.987Z,11.45
2023-03-01T08:14:10.138Z,10.25
2023-03-01T08:16:38.297Z,11.93
2023-03-01T08:19:08.818Z,10.95
2023-03-01T08:21:36.800Z,11.40
2023-03-01T08:24:05.551Z,10.90
2023-03-01T08:26:33.898Z,11.35
2023-03-01T08:29:02.732Z,10.52
2023-03-01T08:31:33.465Z,10.93
2023-03-01T08:34:03.167Z,11.00
2023-03-01T08:36:34.589Z,11.65
2023-03-01T08:39:03.135Z,11.30
2023-03-01T08:41:31.082Z,11.48
2023-03-01T08:44:00.481Z,10.98
2023-03-01T08:46:29.129Z,11.43
2023-03-01T08:48:57.630Z,10.57
2023-03-01T08:51:26.934Z,11.48
2023-03-01T08:53:56.266Z,11.55
2023-03-01T08:56:24.481Z,12.05
2023-03-01T08:58:52.442Z,11.90
2023-03-01T09:01:21.189Z,11.82
2023-03-01T09:03:49.323Z,10.48
2023-03-01T09:06:17.876Z,10.65
2023-03-01T09:08:48.550Z,10.95
2023-03-01T09:11:19.778Z,11.05
2023-03-01T09:13:48.783Z,11.25
2023-03-01T09:16:19.204Z,11.82
2023-03-01T09:18:47.853Z,11.38
2023-03-01T09:21:20.950Z,11.70
2023-03-01T09:23:52.948Z,11.85
2023-03-01T09:26:24.668Z,11.48
2023-03-01T09:28:54.316Z,11.38
2023-03-01T09:31:24.350Z,11.10
2023-03-01T09:33:54.424Z,11.13
2023-03-01T09:36:24.032Z,11.02
2023-03-01T09:38:53.823Z,10.50
2023-03-01T09:41:46.938Z,11.18
2023-03-01T09:44:25.231Z,10.30
2023-03-01T09:46:54.050Z,10.80
2023-03-01T09:49:25.244Z,10.50
2023-03-01T09:51:59.670Z,10.63
2023-03-01T09:54:27.652Z,10.38
2023-03-01T09:57:19.699Z,9.40
2023-03-01T10:00:02.277Z,8.68
2023-03-01T10:02:40.552Z,8.60
2023-03-01T10:05:21.407Z,8.82
2023-03-01T10:07:58.244Z,8.65
2023-03-01T10:10:45.274Z,9.10
2023-03-01T10:13:21.663Z,8.15
2023-03-01T10:15:56.469Z,7.65
2023-03-01T10:18:28.287Z,8.57
2023-03-01T10:21:00.711Z,7.88
2023-03-01T10:23:32.023Z,7.20
2023-03-01T10:26:14.391Z,7.63
2023-03-01T10:28:54.267Z,8.23
2023-03-01T10:31:29.352Z,8.90
2023-03-01T10:33:59.950Z,8.10
2023-03-01T10:36:27.956Z,8.13
2023-03-01T10:38:58.706Z,7.80
2023-03-01T10:41:28.527Z,8.02
2023-03-01T10:43:59.102Z,7.88
2023-03-01T10:46:28.752Z,7.97
2023-03-01T10:49:15.474Z,8.15
2023-03-01T10:51:45.849Z,7.68
2023-03-01T10:54:23.914Z,7.22
2023-03-01T10:56:54.732Z,8.13
2023-03-01T10:59:29.272Z,8.25
2023-03-01T11:02:23.413Z,7.63
2023-03-01T11:05:02.885Z,7.53
2023-03-01T11:07:31.559Z,7.38
2023-03-01T11:09:59.552Z,7.57
2023-03-01T11:12:30.569Z,7.43
2023-03-01T11:14:59.945Z,7.82
2023-03-01T11:17:34.717Z,7.68
2023-03-01T11:20:19.599Z,7.80
2023-03-01T11:22:51.012Z,8.10
2023-03-01T11:25:21.763Z,7.95
2023-03-01T11:27:49.886Z,8.57
2023-03-01T11:30:25.008Z,7.95
2023-03-01T11:33:03.463Z,7.75
2023-03-01T11:35:34.200Z,7.82
2023-03-01T11:38:14.219Z,7.82
2023-03-01T11:40:46.884Z,7.78
2023-03-01T11:43:21.588Z,8.10
2023-03-01T11:46:23.742Z,7.93
2023-03-01T11:49:01.075Z,7.15
2023-03-01T11:51:43.773Z,6.88
2023-03-01T11:54:27.747Z,7.18
2023-03-01T11:56:59.887Z,7.43
2023-03-01T12:00:07.978Z,7.22
2023-03-01T12:03:00.752Z,7.22
2023-03-01T12:06:04.666Z,6.20
2023-03-01T12:08:38.657Z,7.90
2023-03-01T12:11:22.321Z,7.10
2023-03-01T12:14:15.140Z,6.93
2023-03-01T12:17:02.646Z,6.85
2023-03-01T12:19:55.539Z,7.47
2023-03-01T12:22:32.088Z,6.72
2023-03-01T12:25:21.473Z,7.07
2023-03-01T12:28:05.107Z,6.55
2023-03-01T12:30:42.430Z,6.80
2023-03-01T12:33:22.033Z,6.75
2023-03-01T12:36:12.485Z,6.20
2023-03-01T12:38:44.564Z,7.20
2023-03-01T12:41:40.972Z,6.13
2023-03-01T12:44:17.601Z,6.78
2023-03-01T12:47:02.288Z,7.20
2023-03-01T12:49:36.607Z,6.78
2023-03-01T12:52:16.136Z,6.80
2023-03-01T12:54:44.558Z,6.97
2023-03-01T12:57:18.621Z,6.47
2023-03-01T12:59:59.529Z,6.20
2023-03-01T13:02:35.472Z,6.78
2023-03-01T13:05:20.858Z,6.60
2023-03-01T13:08:00.076Z,6.68
2023-03-01T13:10:35.926Z,6.78
2023-03-01T13:13:14.971Z,6.32
2023-03-01T13:15:43.715Z,6.70
2023-03-01T13:18:34.187Z,6.75
2023-03-01T13:21:04.582Z,8.48
2023-03-01T13:23:37.199Z,6.78
2023-03-01T13:26:17.237Z,6.32
2023-03-01T13:28:51.125Z,5.15
2023-03-01T13:32:05.908Z,5.75
2023-03-01T13:34:52.661Z,5.40
2023-03-01T13:37:32.594Z,5.93
2023-03-01T13:40:06.561Z,5.60
2023-03-01T13:42:48.155Z,5.85
2023-03-01T13:45:34.599Z,5.95
2023-03-01T13:48:10.176Z,6.75
2023-03-01T13:53:16.454Z,5.53
2023-03-01T13:55:49.340Z,6.18
2023-03-01T13:58:22.873Z,5.20
2023-03-01T14:00:58.092Z,5.13
2023-03-01T14:03:26.362Z,5.32
2023-03-01T14:06:14.640Z,5.43
2023-03-01T14:08:45.755Z,5.07
2023-03-01T14:11:49.229Z,4.88
2023-03-01T14:14:43.970Z,5.68
2023-03-01T14:17:46.802Z,5.82
2023-03-01T14:20:20.797Z,5.90
2023-03-01T14:22:50.468Z,5.68
2023-03-01T14:25:26.195Z,5.22
2023-03-01T14:27:59.854Z,5.37
2023-03-01T14:30:29.714Z,5.10
2023-03-01T14:32:59.418Z,5.75
2023-03-01T14:35:30.152Z,5.90
2023-03-01T14:37:58.265Z,5.78
2023-03-01T14:40:29.560Z,5.53
2023-03-01T14:43:01.431Z,6.15
2023-03-01T14:45:31.957Z,5.93
2023-03-01T14:48:03.935Z,6.88
2023-03-01T14:50:36.555Z,6.15
2023-03-01T14:53:08.774Z,5.88
2023-03-01T14:55:39.195Z,6.00
2023-03-01T14:58:14.564Z,5.88
2023-03-01T15:00:50.449Z,5.63
2023-03-01T15:03:26.064Z,5.82
2023-03-01T15:08:26.546Z,5.55
2023-03-01T15:11:03.935Z,5.78
2023-03-01T15:13:35.002Z,5.35
2023-03-01T15:16:08.643Z,5.70
2023-03-01T15:18:38.071Z,5.70
2023-03-01T15:21:12.112Z,5.43
2023-03-01T15:23:41.999Z,6.03
2023-03-01T15:26:26.119Z,5.88
2023-03-01T15:28:59.595Z,6.00
2023-03-01T15:31:29.227Z,6.10
2023-03-01T15:34:11.641Z,5.93
2023-03-01T15:36:43.773Z,7.25
2023-03-01T15:39:40.685Z,6.18
2023-03-01T15:42:11.134Z,6.53
2023-03-01T15:44:44.189Z,6.25
2023-03-01T15:47:28.542Z,6.05
2023-03-01T15:49:58.945Z,5.53
2023-03-01T15:52:30.910Z,5.88
2023-03-01T15:55:01.343Z,5.70
2023-03-01T15:57:29.340Z,5.82
2023-03-01T15:59:58.734Z,5.68
2023-03-01T16:02:27.097Z,6.32
2023-03-01T16:04:57.488Z,6.75
2023-03-01T16:07:27.800Z,5.93
2023-03-01T16:09:55.769Z,6.28
2023-03-01T16:12:25.238Z,5.78
2023-03-01T16:14:54.874Z,5.45
2023-03-01T16:17:24.048Z,4.93
2023-03-01T16:19:52.022Z,5.50
2023-03-01T16:22:25.776Z,5.38
2023-03-01T16:24:53.788Z,5.22
2023-03-01T16:27:21.714Z,5.38
2023-03-01T16:29:50.078Z,5.53
2023-03-01T16:32:18.031Z,5.20
2023-03-01T16:34:50.125Z,5.28
2023-03-01T16:37:20.229Z,5.22
2023-03-01T16:39:49.761Z,5.45
2023-03-01T16:42:18.178Z,5.65
2023-03-01T16:44:46.012Z,5.05
2023-03-01T16:47:13.859Z,5.38
2023-03-01T16:49:41.729Z,7.53
2023-03-01T16:52:11.018Z,7.05
2023-03-01T16:54:38.938Z,5.90
2023-03-01T16:57:06.902Z,5.20
2023-03-01T16:59:34.745Z,5.53
2023-03-01T17:02:02.935Z,4.93
2023-03-01T17:04:30.728Z,5.03
2023-03-01T17:06:58.638Z,5.45
2023-03-01T17:09:29.137Z,5.38
2023-03-01T17:11:58.876Z,5.53
2023-03-01T17:14:26.806Z,5.80
2023-03-01T17:16:55.167Z,5.38
2023-03-01T17:19:23.097Z,5.70
2023-03-01T17:21:51.201Z,5.60
2023-03-01T17:24:19.081Z,5.93
2023-03-01T17:26:48.506Z,5.80
2023-03-01T17:29:18.837Z,5.82
2023-03-01T17:31:46.923Z,5.70
2023-03-01T17:34:16.072Z,5.80
2023-03-01T17:36:46.817Z,6.25
2023-03-01T17:39:14.925Z,5.55
2023-03-01T17:41:42.788Z,5.63
2023-03-01T17:44:11.948Z,6.10
2023-03-01T17:46:39.887Z,5.40
2023-03-01T17:49:07.718Z,5.65
2023-03-01T17:51:37.435Z,5.22
2023-03-01T17:54:06.607Z,7.22
2023-03-01T17:56:34.453Z,6.13
2023-03-01T17:59:02.735Z,6.15
2023-03-01T18:01:32.477Z,6.03
2023-03-01T18:04:00.542Z,6.78
2023-03-01T18:06:30.152Z,7.05
2023-03-01T18:08:58.253Z,8.00
2023-03-01T18:11:27.145Z,8.35
2023-03-01T18:13:55.527Z,7.00
2023-03-01T18:16:23.927Z,8.30
2023-03-01T18:18:56.147Z,7.18
2023-03-01T18:21:24.150Z,6.28
2023-03-01T18:23:52.132Z,7.50
2023-03-01T18:26:22.166Z,7.07
2023-03-01T18:28:52.349Z,9.05
2023-03-01T18:31:22.768Z,7.30
2023-03-01T18:33:53.365Z,7.60
2023-03-01T18:36:25.413Z,6.53
2023-03-01T18:38:56.153Z,7.28
2023-03-01T18:41:25.366Z,8.18
2023-03-01T18:43:53.812Z,6.40
2023-03-01T18:46:22.016Z,6.28
2023-03-01T18:48:50.146Z,6.35
2023-03-01T18:51:20.622Z,6.57
2023-03-01T18:53:50.080Z,6.85
2023-03-01T18:56:18.119Z,10.65
2023-03-01T18:58:46.391Z,6.35
2023-03-01T19:01:16.168Z,7.50
2023-03-01T19:03:44.509Z,8.82
2023-03-01T19:06:12.643Z,6.43
2023-03-01T19:08:42.458Z,7.68
2023-03-01T19:11:12.952Z,7.22
2023-03-01T19:13:41.953Z,7.15
2023-03-01T19:16:11.945Z,7.00
2023-03-01T19:18:41.294Z,8.30
2023-03-01T19:21:11.833Z,9.75
2023-03-01T19:23:40.232Z,9.07
2023-03-01T19:26:10.485Z,8.35
2023-03-01T19:28:40.298Z,6.82
2023-03-01T19:31:10.096Z,6.85
2023-03-01T19:33:39.953Z,7.40
2023-03-01T19:36:09.965Z,8.05
2023-03-01T19:38:39.362Z,6.78
2023-03-01T19:41:08.611Z,6.93
2023-03-01T19:43:36.793Z,6.35
2023-03-01T19:46:06.361Z,6.85
2023-03-01T19:48:35.010Z,6.45
2023-03-01T19:51:02.983Z,6.88
2023-03-01T19:53:30.963Z,7.18
2023-03-01T19:56:00.220Z,7.03
2023-03-01T19:58:28.570Z,7.38
2023-03-01T20:00:58.874Z,7.50
2023-03-01T20:03:29.161Z,7.95
2023-03-01T20:05:58.363Z,7.30
2023-03-01T20:08:26.926Z,7.25
2023-03-01T20:10:54.873Z,6.72
2023-03-01T20:13:23.155Z,7.43
2023-03-01T20:15:51.139Z,7.43
2023-03-01T20:18:19.122Z,7.13
2023-03-01T20:20:51.515Z,7.80
2023-03-01T20:23:20.151Z,7.35
2023-03-01T20:25:51.674Z,7.85
2023-03-01T20:28:20.754Z,6.97
2023-03-01T20:30:48.579Z,6.70
2023-03-01T20:33:16.378Z,6.45
2023-03-01T20:35:44.824Z,6.45
2023-03-01T20:38:14.189Z,6.55
2023-03-01T20:40:42.126Z,7.03
2023-03-01T20:43:10.028Z,6.57
2023-03-01T20:45:39.742Z,7.20
2023-03-01T20:48:07.851Z,6.82
2023-03-01T20:50:35.723Z,7.18
2023-03-01T20:53:03.764Z,7.15
2023-03-01T20:55:34.482Z,7.22
2023-03-01T20:58:02.509Z,7.40
2023-03-01T21:00:30.528Z,7.50
2023-03-01T21:02:58.458Z,7.38
2023-03-01T21:05:26.329Z,7.78
2023-03-01T21:07:54.139Z,7.57
2023-03-01T21:10:22.028Z,7.93
2023-03-01T21:12:51.506Z,7.30
2023-03-01T21:15:28.596Z,7.53
2023-03-01T21:17:57.677Z,8.55
2023-03-01T21:20:25.586Z,8.68
2023-03-01T21:22:53.415Z,10.35
2023-03-01T21:25:21.331Z,10.15
2023-03-01T21:27:49.204Z,9.82
2023-03-01T21:30:18.889Z,9.25
2023-03-01T21:32:46.798Z,9.40
2023-03-01T21:35:14.827Z,8.90
2023-03-01T21:37:42.672Z,10.52
2023-03-01T21:40:11.553Z,11.73
2023-03-01T21:42:40.673Z,10.27
2023-03-01T21:45:09.745Z,8.80
2023-03-01T21:47:40.218Z,9.38
2023-03-01T21:50:08.948Z,9.63
2023-03-01T21:52:36.850Z,8.70
2023-03-01T21:55:05.057Z,8.60
2023-03-01T21:57:33.093Z,8.40
2023-03-01T22:00:00.990Z,8.18
2023-03-01T22:02:28.873Z,8.68
2023-03-01T22:04:58.376Z,8.63
2023-03-01T22:07:26.415Z,8.05
2023-03-01T22:09:54.625Z,7.72
2023-03-01T22:12:22.585Z,6.97
2023-03-01T22:14:50.376Z,7.18
2023-03-01T22:17:18.401Z,8.00
2023-03-01T22:19:46.760Z,7.72
2023-03-01T22:22:16.340Z,8.77
2023-03-01T22:24:44.157Z,8.65
2023-03-01T22:27:12.029Z,7.95
2023-03-01T22:29:39.877Z,9.45
2023-03-01T22:32:07.841Z,8.77
2023-03-01T22:34:35.964Z,8.30
2023-03-01T22:37:04.692Z,8.20
2023-03-01T22:39:33.975Z,7.88
2023-03-01T22:42:01.940Z,7.97
2023-03-01T22:44:29.871Z,7.63
2023-03-01T22:46:57.759Z,7.93
2023-03-01T22:49:25.902Z,8.25
2023-03-01T22:51:53.786Z,8.00
2023-03-01T22:54:21.753Z,7.82
2023-03-01T22:56:52.205Z,7.22
2023-03-01T22:59:23.116Z,7.07
2023-03-01T23:01:52.442Z,7.38
2023-03-01T23:04:21.982Z,7.68
2023-03-01T23:06:53.971Z,7.75
2023-03-01T23:09:24.923Z,7.97
2023-03-01T23:11:55.106Z,8.10
2023-03-01T23:14:23.640Z,7.75
2023-03-01T23:16:52.459Z,7.63
2023-03-01T23:19:20.422Z,7.78
2023-03-01T23:21:50.502Z,7.80
2023-03-01T23:24:19.735Z,7.38
2023-03-01T23:26:51.806Z,7.20
2023-03-01T23:29:21.714Z,7.45
2023-03-01T23:31:49.683Z,8.18
2023-03-01T23:34:18.419Z,7.75
2023-03-01T23:36:46.332Z,7.55
2023-03-01T23:39:15.169Z,7.90
2023-03-01T23:41:43.198Z,7.57
2023-03-01T23:44:16.019Z,8.27
2023-03-01T23:46:46.361Z,8.23
2023-03-01T23:49:16.245Z,7.90
2023-03-01T23:51:45.456Z,7.43
2023-03-01T23:54:16.165Z,7.68
2023-03-01T23:56:45.281Z,7.85
2023-03-01T23:59:15.936Z,7.72
